メインページ
METAR-TAF:

METAR-TAF

空港 :

Cheboygan County Airport

Cheboygan, ミシガン州, アメリカ合衆国

緯度: 45-39-13N, 経度: 084-31-09W, 海抜: 195m

現時点の気象観測

当レポートは13分前の20:15(UTC)に作成
南/南東の風 5kt
気温 1°C
湿度 69%
気圧 1023 hPa
視程: 16.1km
高度3100ftの雲は散在している

METAR: KSLH 072015Z AUTO 16005KT 10SM SCT031 01/M04 A3021 RMK AO2 T00061045

時間: 15:28 (20:28 UTC)


TAF: 見つかりません

4,000以上の空港の気象観測と天気予報(METAR報とTAF報)

利用可能な観測所は地図上に黄色い丸と赤い丸で示す。

丸の上にカーソルを重ねると観測所名を参照できる。

次にクリックすると気象観測と天気予報を参照できる。

マップの切り替え:黒色「×」印の緑ボタンをクリックして拡大、「-」印の緑ボタンをクリックして縮小、緑色の三角印をクリックして隣りの地図に切り替え


METAR-TAF: